Time;durP1;ratioP1;P1;durP2;ratioP2;P2;SDS_P1;SDS_P2;PMS_P1;PMS_P2;Temp;Humidity;BMP_temperature;BMP_pressure;BME280_temperature;BME280_humidity;BME280_pressure;Samples;Min_cycle;Max_cycle;Signal;HPM_P1;HPM_P2
2022/06/28 12:43:08;;;;;;;;;;;;;;;35.84;29.37;101089.38;4921359;28;98137;-63
2022/06/28 14:33:42;;;;;;;;;;;;;;;30.86;32.26;101025.91;4913864;28;97820;-63
2022/06/28 14:36:08;;;;;;;;;;;;;;;30.63;32.29;101021.41;4935531;28;126645;-65
2022/06/28 14:38:36;;;;;;;;;;;;;;;30.43;32.45;101009.81;4921393;28;97800;-58
2022/06/28 14:41:01;;;;;;;;;;;;;;;30.21;32.43;101011.66;4921795;28;99160;-58
2022/06/28 14:43:27;;;;;;;;;;;;;;;30.01;32.77;101002.78;4920474;28;126943;-58
2022/06/28 14:45:53;;;;;;;;;;;;;;;29.83;33.35;100991.56;4920950;28;126679;-57
2022/06/28 14:48:20;;;;;;;;;;;;;;;29.65;33.32;100987.06;4922143;28;98003;-58
2022/06/28 14:50:46;;;;;;;;;;;;;;;29.70;33.00;100978.34;4921092;28;99021;-63
2022/06/28 14:53:12;;;;;;;;;;;;;;;29.72;32.63;100976.00;4921491;28;98547;-58
2022/06/28 14:55:39;;;;;;;;;;;;;;;29.56;33.00;100977.03;4921890;28;97993;-65
2022/06/28 14:58:07;;;;;;;;;;;;;;;29.48;33.00;100988.47;4921957;28;97896;-63
2022/06/28 15:00:33;;;;;;;;;;;;;;;29.37;33.47;100973.72;4936505;28;98455;-58
2022/06/28 15:02:59;;;;;;;;;;;;;;;29.35;33.49;100980.41;4941889;28;99490;-58
2022/06/28 15:05:26;;;;;;;;;;;;;;;29.40;33.49;100982.06;4939978;28;98059;-58
2022/06/28 15:07:52;;;;;;;;;;;;;;;29.43;33.78;100975.72;4919638;28;98062;-65
2022/06/28 15:10:17;;;;;;;;;;;;;;;29.27;33.66;100977.97;4920590;28;126895;-63
2022/06/28 15:12:47;;;;;;;;;;;;;;;29.15;33.69;100992.13;4920608;28;127367;-65
2022/06/28 15:15:12;;;;;;;;;;;;;;;29.20;33.63;100975.94;4921587;28;98071;-65
2022/06/28 15:17:38;;;;;;;;;;;;;;;29.20;33.34;100969.56;4920229;28;117459;-63
2022/06/28 15:20:05;;;;;;;;;;;;;;;29.16;33.93;100960.41;4921551;28;108424;-57
2022/06/28 15:30:53;;;;;;;;;;;;;;;28.79;33.52;100950.13;4918722;28;98186;-58
2022/06/28 15:33:26;;;;;;;;;;;;;;;28.76;33.56;100945.31;4920689;28;97860;-58
2022/06/28 15:35:54;;;;;;;;;;;;;;;28.71;33.22;100948.44;4921834;28;97783;-65
2022/06/28 15:38:24;;;;;;;;;;;;;;;28.69;33.66;100951.63;4920697;28;98100;-58
2022/06/28 15:40:50;;;;;;;;;;;;;;;28.66;33.33;100957.13;4921154;28;98296;-65
2022/06/28 15:43:17;;;;;;;;;;;;;;;28.63;33.80;100956.69;4921063;28;98744;-65
2022/06/28 15:45:44;;;;;;;;;;;;;;;28.61;33.50;100952.69;4921504;28;98340;-63
2022/06/28 15:48:10;;;;;;;;;;;;;;;28.58;33.75;100951.47;4920903;28;97951;-57
2022/06/28 15:50:36;;;;;;;;;;;;;;;28.58;33.62;100950.69;4920121;28;98252;-57
2022/06/28 15:53:02;;;;;;;;;;;;;;;28.55;33.52;100952.22;4920312;28;121058;-58
2022/06/28 15:55:28;;;;;;;;;;;;;;;28.49;33.24;100956.53;4920238;28;98050;-64
2022/06/28 15:57:54;;;;;;;;;;;;;;;28.42;33.27;100963.97;4920985;28;111122;-63
2022/06/28 16:00:21;;;;;;;;;;;;;;;28.38;33.37;100947.28;4933720;28;103032;-57
2022/06/28 16:02:47;;;;;;;;;;;;;;;28.34;33.40;100944.44;4939661;28;98421;-63
2022/06/28 16:05:13;;;;;;;;;;;;;;;28.40;33.45;100933.84;4920609;28;103445;-57
2022/06/28 16:07:39;;;;;;;;;;;;;;;28.49;33.63;100939.06;4921065;28;98888;-57
2022/06/28 16:10:06;;;;;;;;;;;;;;;28.57;33.82;100941.59;4920376;28;98371;-57
2022/06/28 16:15:17;;;;;;;;;;;;;;;28.67;33.89;100925.44;4917226;28;98036;-57
2022/06/28 16:17:43;;;;;;;;;;;;;;;28.70;33.80;100928.25;4919126;28;118247;-57
2022/06/28 16:20:11;;;;;;;;;;;;;;;28.73;34.01;100932.22;4920742;28;99461;-64
2022/06/28 16:22:39;;;;;;;;;;;;;;;28.74;34.17;100928.28;4921252;28;98487;-64
2022/06/28 16:25:08;;;;;;;;;;;;;;;28.72;34.19;100931.41;4920741;28;97977;-62
2022/06/28 16:27:34;;;;;;;;;;;;;;;28.70;34.26;100927.44;4919045;28;112364;-57
2022/06/28 16:30:00;;;;;;;;;;;;;;;28.67;34.12;100929.00;4920027;28;100604;-57
2022/06/28 16:32:27;;;;;;;;;;;;;;;28.63;34.09;100917.88;4920806;28;116204;-57
2022/06/28 16:34:52;;;;;;;;;;;;;;;28.60;34.23;100926.94;4919811;28;125570;-57
2022/06/28 16:37:18;;;;;;;;;;;;;;;28.56;34.55;100919.75;4918755;28;117526;-57
2022/06/28 16:39:44;;;;;;;;;;;;;;;28.53;34.38;100926.06;4919335;28;111196;-64
2022/06/28 16:42:10;;;;;;;;;;;;;;;28.47;34.50;100916.50;4919378;28;128019;-57
2022/06/28 16:44:36;;;;;;;;;;;;;;;28.41;34.84;100920.78;4918853;28;127462;-62
2022/06/28 16:47:03;;;;;;;;;;;;;;;28.35;34.74;100921.09;4920642;28;97883;-63
2022/06/28 16:49:29;;;;;;;;;;;;;;;28.31;34.64;100911.94;4918560;28;98710;-57
2022/06/28 16:51:55;;;;;;;;;;;;;;;28.28;34.94;100912.69;4919549;28;127329;-57
2022/06/28 16:54:21;;;;;;;;;;;;;;;28.24;34.77;100916.59;4918150;28;128310;-58
2022/06/28 16:56:47;;;;;;;;;;;;;;;28.19;35.07;100925.25;4919688;28;116860;-64
2022/06/28 16:59:13;;;;;;;;;;;;;;;28.13;34.79;100920.00;4924947;28;127879;-62
2022/06/28 17:01:39;;;;;;;;;;;;;;;28.10;35.23;100918.00;4924208;28;98819;-57
2022/06/28 17:04:05;;;;;;;;;;;;;;;28.07;35.09;100917.97;4918613;28;125701;-62
2022/06/28 17:09:15;;;;;;;;;;;;;;;27.98;35.24;100907.16;4917270;28;98083;-57
2022/06/28 17:11:42;;;;;;;;;;;;;;;27.95;35.25;100901.56;4919059;28;128260;-57
2022/06/28 17:14:09;;;;;;;;;;;;;;;27.91;35.21;100900.72;4933889;28;98013;-57
2022/06/28 17:16:34;;;;;;;;;;;;;;;27.86;35.49;100897.13;4918275;28;118405;-64
2022/06/28 17:19:00;;;;;;;;;;;;;;;27.81;35.51;100889.09;4920091;28;115641;-63
2022/06/28 17:21:27;;;;;;;;;;;;;;;27.77;35.48;100885.50;4918342;28;128011;-62
2022/06/28 17:23:53;;;;;;;;;;;;;;;27.70;35.62;100879.81;4918742;28;97887;-64
2022/06/28 17:26:19;;;;;;;;;;;;;;;27.64;35.72;100868.28;4920851;28;97914;-65
2022/06/28 17:28:45;;;;;;;;;;;;;;;27.60;35.98;100870.19;4918650;28;100525;-57
2022/06/28 17:31:11;;;;;;;;;;;;;;;27.54;35.93;100857.03;4920919;28;128207;-57
2022/06/28 17:33:37;;;;;;;;;;;;;;;27.48;36.18;100848.28;4918060;28;127999;-64
2022/06/28 17:36:03;;;;;;;;;;;;;;;27.44;36.26;100843.88;4921792;28;97998;-64
2022/06/28 17:38:29;;;;;;;;;;;;;;;27.36;36.24;100851.25;4917657;28;126964;-57
2022/06/28 17:40:55;;;;;;;;;;;;;;;27.30;36.45;100852.75;4918883;28;128696;-64
2022/06/28 17:43:21;;;;;;;;;;;;;;;27.23;36.51;100853.41;4918493;28;120597;-57
2022/06/28 17:45:47;;;;;;;;;;;;;;;27.19;36.64;100851.78;4919311;28;108465;-64
2022/06/28 17:48:13;;;;;;;;;;;;;;;27.14;36.67;100852.88;4920563;28;98365;-57
2022/06/28 17:50:39;;;;;;;;;;;;;;;27.08;37.06;100846.84;4918162;28;122603;-57
2022/06/28 17:53:06;;;;;;;;;;;;;;;27.03;37.00;100849.13;4920481;28;125834;-57
2022/06/28 17:55:32;;;;;;;;;;;;;;;26.99;37.16;100851.03;4923038;28;97929;-58
2022/06/28 17:57:58;;;;;;;;;;;;;;;26.95;37.19;100858.47;4918549;28;123800;-57
2022/06/28 18:00:24;;;;;;;;;;;;;;;26.90;37.39;100848.50;4931474;28;120675;-58
2022/06/28 18:02:50;;;;;;;;;;;;;;;26.84;37.47;100853.56;4938621;28;98052;-64
2022/06/28 18:05:17;;;;;;;;;;;;;;;26.81;37.57;100850.72;4921343;28;98686;-63
2022/06/28 18:07:43;;;;;;;;;;;;;;;26.75;37.53;100861.28;4917614;28;104887;-57
2022/06/28 18:10:09;;;;;;;;;;;;;;;26.70;37.79;100864.34;4919127;28;128384;-64
2022/06/28 18:12:35;;;;;;;;;;;;;;;26.65;37.73;100867.44;4918558;28;125829;-57
2022/06/28 18:15:01;;;;;;;;;;;;;;;26.59;37.72;100864.16;4919286;28;98089;-61
2022/06/28 18:17:27;;;;;;;;;;;;;;;26.55;37.98;100857.75;4918172;28;128082;-57
2022/06/28 18:19:54;;;;;;;;;;;;;;;26.50;38.31;100874.66;4918765;28;98575;-64
2022/06/28 18:22:20;;;;;;;;;;;;;;;26.47;38.36;100878.13;4918749;28;105535;-64
2022/06/28 18:24:47;;;;;;;;;;;;;;;26.41;38.64;100874.84;4919556;28;98275;-57
2022/06/28 18:27:13;;;;;;;;;;;;;;;26.35;38.46;100879.06;4918829;28;98960;-63
2022/06/28 18:29:39;;;;;;;;;;;;;;;26.31;38.41;100885.69;4919800;28;122250;-64
2022/06/28 18:32:06;;;;;;;;;;;;;;;26.25;38.72;100890.69;4920309;28;98348;-64
2022/06/28 18:34:33;;;;;;;;;;;;;;;26.20;38.96;100888.22;4921741;28;97846;-57
2022/06/28 18:37:00;;;;;;;;;;;;;;;26.15;38.88;100894.84;4918165;28;98779;-57
2022/06/28 18:39:25;;;;;;;;;;;;;;;26.10;39.29;100897.91;4919509;28;125749;-65
2022/06/28 18:41:51;;;;;;;;;;;;;;;26.03;39.27;100911.53;4920280;28;126991;-57
